sensor_id;sensor_type;location;lat;lon;timestamp;temperature;humidity
1778;DHT22;886;50.082;8.222;2022-08-04T00:00:34;24.50;75.30
1778;DHT22;886;50.082;8.222;2022-08-04T00:03:12;24.50;75.00
1778;DHT22;886;50.082;8.222;2022-08-04T00:05:51;24.60;75.40
1778;DHT22;886;50.082;8.222;2022-08-04T00:08:33;24.60;75.30
1778;DHT22;886;50.082;8.222;2022-08-04T00:11:08;24.60;75.40
1778;DHT22;886;50.082;8.222;2022-08-04T00:13:43;24.50;75.00
1778;DHT22;886;50.082;8.222;2022-08-04T00:16:31;24.40;75.30
1778;DHT22;886;50.082;8.222;2022-08-04T00:19:09;24.40;75.80
1778;DHT22;886;50.082;8.222;2022-08-04T00:21:40;24.30;75.70
1778;DHT22;886;50.082;8.222;2022-08-04T00:24:11;24.20;76.00
1778;DHT22;886;50.082;8.222;2022-08-04T00:26:39;24.30;76.20
1778;DHT22;886;50.082;8.222;2022-08-04T00:29:07;24.30;76.20
1778;DHT22;886;50.082;8.222;2022-08-04T00:31:35;24.20;76.30
1778;DHT22;886;50.082;8.222;2022-08-04T00:34:23;24.20;76.20
1778;DHT22;886;50.082;8.222;2022-08-04T00:36:56;24.10;76.50
1778;DHT22;886;50.082;8.222;2022-08-04T00:39:26;24.20;76.60
1778;DHT22;886;50.082;8.222;2022-08-04T00:42:22;24.10;76.70
1778;DHT22;886;50.082;8.222;2022-08-04T00:45:22;24.20;77.00
1778;DHT22;886;50.082;8.222;2022-08-04T00:48:35;24.10;76.90
1778;DHT22;886;50.082;8.222;2022-08-04T00:51:14;24.00;77.20
1778;DHT22;886;50.082;8.222;2022-08-04T00:54:00;24.00;77.50
1778;DHT22;886;50.082;8.222;2022-08-04T00:56:48;24.10;77.50
1778;DHT22;886;50.082;8.222;2022-08-04T01:00:04;24.00;77.60
1778;DHT22;886;50.082;8.222;2022-08-04T01:02:38;23.90;78.00
1778;DHT22;886;50.082;8.222;2022-08-04T01:05:20;23.90;77.90
1778;DHT22;886;50.082;8.222;2022-08-04T01:08:17;23.90;77.80
1778;DHT22;886;50.082;8.222;2022-08-04T01:11:00;23.90;77.90
1778;DHT22;886;50.082;8.222;2022-08-04T01:13:51;23.70;78.00
1778;DHT22;886;50.082;8.222;2022-08-04T01:16:25;23.70;78.80
1778;DHT22;886;50.082;8.222;2022-08-04T01:18:58;23.80;78.40
1778;DHT22;886;50.082;8.222;2022-08-04T01:21:56;23.80;78.40
1778;DHT22;886;50.082;8.222;2022-08-04T01:24:50;23.80;78.40
1778;DHT22;886;50.082;8.222;2022-08-04T01:27:45;23.80;77.80
1778;DHT22;886;50.082;8.222;2022-08-04T01:30:26;23.80;77.90
1778;DHT22;886;50.082;8.222;2022-08-04T01:32:59;23.80;77.90
1778;DHT22;886;50.082;8.222;2022-08-04T01:35:33;23.80;77.50
1778;DHT22;886;50.082;8.222;2022-08-04T01:38:17;23.80;77.50
1778;DHT22;886;50.082;8.222;2022-08-04T01:40:54;23.70;77.70
1778;DHT22;886;50.082;8.222;2022-08-04T01:43:23;23.70;78.30
1778;DHT22;886;50.082;8.222;2022-08-04T01:45:58;23.80;78.10
1778;DHT22;886;50.082;8.222;2022-08-04T01:48:27;23.70;77.90
1778;DHT22;886;50.082;8.222;2022-08-04T01:50:57;23.70;78.30
1778;DHT22;886;50.082;8.222;2022-08-04T01:53:30;23.60;78.20
1778;DHT22;886;50.082;8.222;2022-08-04T01:56:01;23.60;78.40
1778;DHT22;886;50.082;8.222;2022-08-04T01:58:30;23.60;79.00
1778;DHT22;886;50.082;8.222;2022-08-04T02:01:03;23.60;79.10
1778;DHT22;886;50.082;8.222;2022-08-04T02:03:35;23.60;79.20
1778;DHT22;886;50.082;8.222;2022-08-04T02:06:29;23.50;79.30
1778;DHT22;886;50.082;8.222;2022-08-04T02:09:06;23.50;79.50
1778;DHT22;886;50.082;8.222;2022-08-04T02:11:40;23.60;79.00
1778;DHT22;886;50.082;8.222;2022-08-04T02:14:19;23.40;79.50
1778;DHT22;886;50.082;8.222;2022-08-04T02:17:11;23.30;80.40
1778;DHT22;886;50.082;8.222;2022-08-04T02:20:06;23.40;79.90
1778;DHT22;886;50.082;8.222;2022-08-04T02:22:40;23.40;80.00
1778;DHT22;886;50.082;8.222;2022-08-04T02:25:11;23.40;80.20
1778;DHT22;886;50.082;8.222;2022-08-04T02:27:55;23.50;80.20
1778;DHT22;886;50.082;8.222;2022-08-04T02:30:33;23.50;79.80
1778;DHT22;886;50.082;8.222;2022-08-04T02:33:10;23.50;80.10
1778;DHT22;886;50.082;8.222;2022-08-04T02:35:40;23.20;80.30
1778;DHT22;886;50.082;8.222;2022-08-04T02:38:20;23.20;80.80
1778;DHT22;886;50.082;8.222;2022-08-04T02:41:00;23.20;80.90
1778;DHT22;886;50.082;8.222;2022-08-04T02:43:28;23.20;80.50
1778;DHT22;886;50.082;8.222;2022-08-04T02:46:17;23.20;80.70
1778;DHT22;886;50.082;8.222;2022-08-04T02:48:48;23.20;80.50
1778;DHT22;886;50.082;8.222;2022-08-04T02:51:19;23.20;81.10
1778;DHT22;886;50.082;8.222;2022-08-04T02:53:52;23.30;81.10
1778;DHT22;886;50.082;8.222;2022-08-04T02:56:21;23.30;81.10
1778;DHT22;886;50.082;8.222;2022-08-04T02:58:59;23.10;81.60
1778;DHT22;886;50.082;8.222;2022-08-04T03:01:27;23.10;82.20
1778;DHT22;886;50.082;8.222;2022-08-04T03:07:45;23.20;81.80
1778;DHT22;886;50.082;8.222;2022-08-04T03:11:03;23.10;82.30
1778;DHT22;886;50.082;8.222;2022-08-04T03:17:30;23.00;83.00
1778;DHT22;886;50.082;8.222;2022-08-04T03:20:50;23.00;82.80
1778;DHT22;886;50.082;8.222;2022-08-04T03:24:28;23.10;82.90
1778;DHT22;886;50.082;8.222;2022-08-04T03:27:11;23.10;83.00
1778;DHT22;886;50.082;8.222;2022-08-04T03:30:06;23.00;83.20
1778;DHT22;886;50.082;8.222;2022-08-04T03:33:08;22.90;83.80
1778;DHT22;886;50.082;8.222;2022-08-04T03:36:09;22.90;84.20
1778;DHT22;886;50.082;8.222;2022-08-04T03:46:27;22.80;85.10
1778;DHT22;886;50.082;8.222;2022-08-04T03:55:51;22.50;86.30
1778;DHT22;886;50.082;8.222;2022-08-04T03:58:54;22.60;86.20
1778;DHT22;886;50.082;8.222;2022-08-04T04:02:08;22.70;86.00
1778;DHT22;886;50.082;8.222;2022-08-04T04:05:20;22.70;86.20
1778;DHT22;886;50.082;8.222;2022-08-04T04:12:25;22.60;86.20
1778;DHT22;886;50.082;8.222;2022-08-04T04:15:19;22.50;87.10
1778;DHT22;886;50.082;8.222;2022-08-04T04:18:14;22.50;87.20
1778;DHT22;886;50.082;8.222;2022-08-04T04:20:55;22.60;87.00
1778;DHT22;886;50.082;8.222;2022-08-04T04:23:51;22.60;87.70
1778;DHT22;886;50.082;8.222;2022-08-04T04:26:39;22.50;87.30
1778;DHT22;886;50.082;8.222;2022-08-04T04:29:43;22.40;87.90
1778;DHT22;886;50.082;8.222;2022-08-04T04:32:22;22.10;89.10
1778;DHT22;886;50.082;8.222;2022-08-04T04:35:02;22.20;89.70
1778;DHT22;886;50.082;8.222;2022-08-04T04:37:50;22.10;89.90
1778;DHT22;886;50.082;8.222;2022-08-04T04:40:42;22.30;89.70
1778;DHT22;886;50.082;8.222;2022-08-04T04:43:38;22.40;89.80
1778;DHT22;886;50.082;8.222;2022-08-04T04:46:36;22.30;89.60
1778;DHT22;886;50.082;8.222;2022-08-04T04:49:16;22.20;90.20
1778;DHT22;886;50.082;8.222;2022-08-04T04:51:50;22.20;90.30
1778;DHT22;886;50.082;8.222;2022-08-04T04:54:27;22.30;90.20
1778;DHT22;886;50.082;8.222;2022-08-04T04:57:06;22.30;90.10
1778;DHT22;886;50.082;8.222;2022-08-04T04:59:41;22.30;90.20
1778;DHT22;886;50.082;8.222;2022-08-04T05:05:36;22.20;90.40
1778;DHT22;886;50.082;8.222;2022-08-04T05:12:02;22.40;90.40
1778;DHT22;886;50.082;8.222;2022-08-04T05:15:03;22.40;91.00
1778;DHT22;886;50.082;8.222;2022-08-04T05:17:35;22.40;90.80
1778;DHT22;886;50.082;8.222;2022-08-04T05:20:07;22.50;90.70
1778;DHT22;886;50.082;8.222;2022-08-04T05:22:38;22.50;90.80
1778;DHT22;886;50.082;8.222;2022-08-04T05:25:18;22.50;90.80
1778;DHT22;886;50.082;8.222;2022-08-04T05:27:55;22.70;90.80
1778;DHT22;886;50.082;8.222;2022-08-04T05:30:26;22.70;90.70
1778;DHT22;886;50.082;8.222;2022-08-04T05:32:57;22.70;90.90
1778;DHT22;886;50.082;8.222;2022-08-04T05:35:30;22.70;90.90
1778;DHT22;886;50.082;8.222;2022-08-04T05:38:22;22.70;91.30
1778;DHT22;886;50.082;8.222;2022-08-04T05:40:53;22.70;91.30
1778;DHT22;886;50.082;8.222;2022-08-04T05:43:23;22.80;91.40
1778;DHT22;886;50.082;8.222;2022-08-04T05:45:51;22.80;91.20
1778;DHT22;886;50.082;8.222;2022-08-04T05:48:19;22.80;91.40
1778;DHT22;886;50.082;8.222;2022-08-04T05:50:47;22.90;91.40
1778;DHT22;886;50.082;8.222;2022-08-04T05:53:15;22.90;91.50
1778;DHT22;886;50.082;8.222;2022-08-04T05:55:44;23.00;91.10
1778;DHT22;886;50.082;8.222;2022-08-04T05:58:28;23.10;91.00
1778;DHT22;886;50.082;8.222;2022-08-04T06:00:57;23.20;91.20
1778;DHT22;886;50.082;8.222;2022-08-04T06:03:26;23.30;90.90
1778;DHT22;886;50.082;8.222;2022-08-04T06:05:56;23.40;91.10
1778;DHT22;886;50.082;8.222;2022-08-04T06:08:24;23.40;91.20
1778;DHT22;886;50.082;8.222;2022-08-04T06:10:52;23.50;91.30
1778;DHT22;886;50.082;8.222;2022-08-04T06:13:29;23.60;90.90
1778;DHT22;886;50.082;8.222;2022-08-04T06:16:17;23.70;90.70
1778;DHT22;886;50.082;8.222;2022-08-04T06:18:59;23.80;90.20
1778;DHT22;886;50.082;8.222;2022-08-04T06:21:49;23.90;90.00
1778;DHT22;886;50.082;8.222;2022-08-04T06:24:23;23.90;89.00
1778;DHT22;886;50.082;8.222;2022-08-04T06:26:52;24.00;88.80
1778;DHT22;886;50.082;8.222;2022-08-04T06:29:22;24.10;88.80
1778;DHT22;886;50.082;8.222;2022-08-04T06:32:23;24.10;88.60
1778;DHT22;886;50.082;8.222;2022-08-04T06:35:08;24.30;88.70
1778;DHT22;886;50.082;8.222;2022-08-04T06:37:36;24.30;88.50
1778;DHT22;886;50.082;8.222;2022-08-04T06:40:10;24.30;88.30
1778;DHT22;886;50.082;8.222;2022-08-04T06:42:59;24.40;88.30
1778;DHT22;886;50.082;8.222;2022-08-04T06:45:29;24.50;87.70
1778;DHT22;886;50.082;8.222;2022-08-04T06:47:57;24.50;87.60
1778;DHT22;886;50.082;8.222;2022-08-04T06:50:26;24.60;87.20
1778;DHT22;886;50.082;8.222;2022-08-04T06:53:13;24.70;86.20
1778;DHT22;886;50.082;8.222;2022-08-04T06:55:42;24.70;86.10
1778;DHT22;886;50.082;8.222;2022-08-04T06:58:11;24.80;86.00
1778;DHT22;886;50.082;8.222;2022-08-04T07:00:44;24.90;84.70
1778;DHT22;886;50.082;8.222;2022-08-04T07:03:18;25.10;83.40
1778;DHT22;886;50.082;8.222;2022-08-04T07:05:48;25.10;83.10
1778;DHT22;886;50.082;8.222;2022-08-04T07:08:16;25.30;82.80
1778;DHT22;886;50.082;8.222;2022-08-04T07:10:46;25.50;82.10
1778;DHT22;886;50.082;8.222;2022-08-04T07:13:21;25.70;80.90
1778;DHT22;886;50.082;8.222;2022-08-04T07:15:51;26.00;80.60
1778;DHT22;886;50.082;8.222;2022-08-04T07:18:18;26.40;80.00
1778;DHT22;886;50.082;8.222;2022-08-04T07:20:45;26.70;78.10
1778;DHT22;886;50.082;8.222;2022-08-04T07:23:14;27.30;77.00
1778;DHT22;886;50.082;8.222;2022-08-04T07:25:52;27.80;76.10
1778;DHT22;886;50.082;8.222;2022-08-04T07:28:38;28.10;75.80
1778;DHT22;886;50.082;8.222;2022-08-04T07:31:13;28.20;74.30
1778;DHT22;886;50.082;8.222;2022-08-04T07:34:01;28.00;74.20
1778;DHT22;886;50.082;8.222;2022-08-04T07:36:54;27.80;74.00
1778;DHT22;886;50.082;8.222;2022-08-04T07:39:26;27.70;74.90
1778;DHT22;886;50.082;8.222;2022-08-04T07:41:57;27.60;74.90
1778;DHT22;886;50.082;8.222;2022-08-04T07:44:30;27.50;74.90
1778;DHT22;886;50.082;8.222;2022-08-04T07:47:06;27.50;74.40
1778;DHT22;886;50.082;8.222;2022-08-04T07:49:34;27.50;74.60
1778;DHT22;886;50.082;8.222;2022-08-04T07:52:22;27.50;74.60
1778;DHT22;886;50.082;8.222;2022-08-04T07:54:52;27.50;74.40
1778;DHT22;886;50.082;8.222;2022-08-04T07:57:22;27.40;74.70
1778;DHT22;886;50.082;8.222;2022-08-04T08:00:09;27.40;76.10
1778;DHT22;886;50.082;8.222;2022-08-04T08:02:39;27.60;74.60
1778;DHT22;886;50.082;8.222;2022-08-04T08:05:12;27.60;74.00
1778;DHT22;886;50.082;8.222;2022-08-04T08:07:44;27.70;73.10
1778;DHT22;886;50.082;8.222;2022-08-04T08:10:20;27.70;73.30
1778;DHT22;886;50.082;8.222;2022-08-04T08:12:52;27.90;73.60
1778;DHT22;886;50.082;8.222;2022-08-04T08:15:20;28.00;73.60
1778;DHT22;886;50.082;8.222;2022-08-04T08:17:55;28.00;73.90
1778;DHT22;886;50.082;8.222;2022-08-04T08:20:27;28.10;73.50
1778;DHT22;886;50.082;8.222;2022-08-04T08:22:56;28.20;72.20
1778;DHT22;886;50.082;8.222;2022-08-04T08:25:24;28.20;71.80
1778;DHT22;886;50.082;8.222;2022-08-04T08:27:51;28.30;71.20
1778;DHT22;886;50.082;8.222;2022-08-04T08:30:22;28.50;71.20
1778;DHT22;886;50.082;8.222;2022-08-04T08:32:51;28.60;71.70
1778;DHT22;886;50.082;8.222;2022-08-04T08:35:19;28.60;72.00
1778;DHT22;886;50.082;8.222;2022-08-04T08:37:51;28.60;72.90
1778;DHT22;886;50.082;8.222;2022-08-04T08:40:31;28.60;72.30
1778;DHT22;886;50.082;8.222;2022-08-04T08:43:19;28.50;71.60
1778;DHT22;886;50.082;8.222;2022-08-04T08:46:36;28.50;71.60
1778;DHT22;886;50.082;8.222;2022-08-04T08:50:03;28.50;71.70
1778;DHT22;886;50.082;8.222;2022-08-04T08:53:18;28.70;71.30
1778;DHT22;886;50.082;8.222;2022-08-04T08:56:07;28.90;68.90
1778;DHT22;886;50.082;8.222;2022-08-04T08:58:55;28.90;69.30
1778;DHT22;886;50.082;8.222;2022-08-04T09:01:39;28.80;69.70
1778;DHT22;886;50.082;8.222;2022-08-04T09:04:38;28.70;70.00
1778;DHT22;886;50.082;8.222;2022-08-04T09:07:52;28.60;70.00
1778;DHT22;886;50.082;8.222;2022-08-04T09:10:26;28.60;69.40
1778;DHT22;886;50.082;8.222;2022-08-04T09:13:03;28.70;69.50
1778;DHT22;886;50.082;8.222;2022-08-04T09:15:35;28.70;69.40
1778;DHT22;886;50.082;8.222;2022-08-04T09:18:09;28.70;70.30
1778;DHT22;886;50.082;8.222;2022-08-04T09:20:44;28.80;70.00
1778;DHT22;886;50.082;8.222;2022-08-04T09:23:24;28.80;69.80
1778;DHT22;886;50.082;8.222;2022-08-04T09:26:00;28.80;70.60
1778;DHT22;886;50.082;8.222;2022-08-04T09:28:44;28.90;69.90
1778;DHT22;886;50.082;8.222;2022-08-04T09:31:22;29.00;68.70
1778;DHT22;886;50.082;8.222;2022-08-04T09:33:59;29.10;68.60
1778;DHT22;886;50.082;8.222;2022-08-04T09:36:38;29.20;69.20
1778;DHT22;886;50.082;8.222;2022-08-04T09:39:25;29.20;68.30
1778;DHT22;886;50.082;8.222;2022-08-04T09:42:13;29.20;68.80
1778;DHT22;886;50.082;8.222;2022-08-04T09:45:02;29.30;68.80
1778;DHT22;886;50.082;8.222;2022-08-04T09:47:46;29.30;68.60
1778;DHT22;886;50.082;8.222;2022-08-04T09:50:28;29.40;68.60
1778;DHT22;886;50.082;8.222;2022-08-04T09:53:12;29.50;68.80
1778;DHT22;886;50.082;8.222;2022-08-04T09:55:59;29.60;69.10
1778;DHT22;886;50.082;8.222;2022-08-04T09:58:53;29.60;69.60
1778;DHT22;886;50.082;8.222;2022-08-04T10:01:37;29.80;68.80
1778;DHT22;886;50.082;8.222;2022-08-04T10:04:08;29.70;68.90
1778;DHT22;886;50.082;8.222;2022-08-04T10:10:02;29.80;68.60
1778;DHT22;886;50.082;8.222;2022-08-04T10:12:54;30.00;67.60
1778;DHT22;886;50.082;8.222;2022-08-04T10:15:45;30.00;67.20
1778;DHT22;886;50.082;8.222;2022-08-04T10:18:37;30.10;67.70
1778;DHT22;886;50.082;8.222;2022-08-04T10:21:17;30.10;67.20
1778;DHT22;886;50.082;8.222;2022-08-04T10:24:06;30.10;67.10
1778;DHT22;886;50.082;8.222;2022-08-04T10:26:47;30.20;67.90
1778;DHT22;886;50.082;8.222;2022-08-04T10:29:27;30.30;67.30
1778;DHT22;886;50.082;8.222;2022-08-04T10:31:59;30.30;67.00
1778;DHT22;886;50.082;8.222;2022-08-04T10:34:38;30.40;66.40
1778;DHT22;886;50.082;8.222;2022-08-04T10:37:15;30.60;65.10
1778;DHT22;886;50.082;8.222;2022-08-04T10:39:54;30.70;64.50
1778;DHT22;886;50.082;8.222;2022-08-04T10:42:56;30.80;64.30
1778;DHT22;886;50.082;8.222;2022-08-04T10:45:38;30.80;64.40
1778;DHT22;886;50.082;8.222;2022-08-04T10:48:19;30.80;65.10
1778;DHT22;886;50.082;8.222;2022-08-04T10:51:05;30.80;65.90
1778;DHT22;886;50.082;8.222;2022-08-04T10:53:38;30.80;65.50
1778;DHT22;886;50.082;8.222;2022-08-04T10:56:14;30.90;65.00
1778;DHT22;886;50.082;8.222;2022-08-04T10:58:49;31.00;63.90
1778;DHT22;886;50.082;8.222;2022-08-04T11:01:26;31.00;63.80
1778;DHT22;886;50.082;8.222;2022-08-04T11:04:24;31.10;63.20
1778;DHT22;886;50.082;8.222;2022-08-04T11:06:54;31.00;63.70
1778;DHT22;886;50.082;8.222;2022-08-04T11:09:25;31.10;63.30
1778;DHT22;886;50.082;8.222;2022-08-04T11:11:56;31.20;63.40
1778;DHT22;886;50.082;8.222;2022-08-04T11:14:34;31.20;63.30
1778;DHT22;886;50.082;8.222;2022-08-04T11:17:16;31.20;63.90
1778;DHT22;886;50.082;8.222;2022-08-04T11:19:47;31.20;63.10
1778;DHT22;886;50.082;8.222;2022-08-04T11:22:40;31.20;62.80
1778;DHT22;886;50.082;8.222;2022-08-04T11:25:16;31.30;62.90
1778;DHT22;886;50.082;8.222;2022-08-04T11:27:53;31.30;62.50
1778;DHT22;886;50.082;8.222;2022-08-04T11:30:30;31.50;61.50
1778;DHT22;886;50.082;8.222;2022-08-04T11:33:08;31.50;62.90
1778;DHT22;886;50.082;8.222;2022-08-04T11:35:51;31.60;61.20
1778;DHT22;886;50.082;8.222;2022-08-04T11:38:27;31.60;61.10
1778;DHT22;886;50.082;8.222;2022-08-04T11:41:06;31.60;61.10
1778;DHT22;886;50.082;8.222;2022-08-04T11:43:43;31.60;60.90
1778;DHT22;886;50.082;8.222;2022-08-04T11:46:43;31.60;60.50
1778;DHT22;886;50.082;8.222;2022-08-04T11:49:32;31.60;59.30
1778;DHT22;886;50.082;8.222;2022-08-04T11:52:22;31.70;59.80
1778;DHT22;886;50.082;8.222;2022-08-04T11:55:03;31.70;59.40
1778;DHT22;886;50.082;8.222;2022-08-04T11:57:33;31.70;58.20
1778;DHT22;886;50.082;8.222;2022-08-04T12:00:10;31.90;56.70
1778;DHT22;886;50.082;8.222;2022-08-04T12:03:14;31.80;57.40
1778;DHT22;886;50.082;8.222;2022-08-04T12:06:03;31.80;57.60
1778;DHT22;886;50.082;8.222;2022-08-04T12:08:48;31.80;56.30
1778;DHT22;886;50.082;8.222;2022-08-04T12:11:39;31.80;56.50
1778;DHT22;886;50.082;8.222;2022-08-04T12:14:39;31.90;56.10
1778;DHT22;886;50.082;8.222;2022-08-04T12:17:11;32.00;56.00
1778;DHT22;886;50.082;8.222;2022-08-04T12:20:00;32.00;56.50
1778;DHT22;886;50.082;8.222;2022-08-04T12:22:53;32.00;56.80
1778;DHT22;886;50.082;8.222;2022-08-04T12:25:31;32.00;55.90
1778;DHT22;886;50.082;8.222;2022-08-04T12:28:04;32.10;56.10
1778;DHT22;886;50.082;8.222;2022-08-04T12:30:36;32.20;54.70
1778;DHT22;886;50.082;8.222;2022-08-04T12:33:33;32.20;55.50
1778;DHT22;886;50.082;8.222;2022-08-04T12:36:32;32.30;56.20
1778;DHT22;886;50.082;8.222;2022-08-04T12:39:19;32.30;55.80
1778;DHT22;886;50.082;8.222;2022-08-04T12:41:51;32.40;56.40
1778;DHT22;886;50.082;8.222;2022-08-04T12:44:30;32.40;56.30
1778;DHT22;886;50.082;8.222;2022-08-04T12:47:08;32.40;55.90
1778;DHT22;886;50.082;8.222;2022-08-04T12:50:01;32.50;55.00
1778;DHT22;886;50.082;8.222;2022-08-04T12:52:32;32.60;54.70
1778;DHT22;886;50.082;8.222;2022-08-04T12:55:36;32.60;55.90
1778;DHT22;886;50.082;8.222;2022-08-04T12:58:15;32.60;55.20
1778;DHT22;886;50.082;8.222;2022-08-04T13:01:05;32.60;55.30
1778;DHT22;886;50.082;8.222;2022-08-04T13:03:57;32.70;55.70
1778;DHT22;886;50.082;8.222;2022-08-04T13:06:37;32.80;55.50
1778;DHT22;886;50.082;8.222;2022-08-04T13:09:10;32.70;55.20
1778;DHT22;886;50.082;8.222;2022-08-04T13:11:49;32.80;55.50
1778;DHT22;886;50.082;8.222;2022-08-04T13:14:22;32.80;55.00
1778;DHT22;886;50.082;8.222;2022-08-04T13:16:56;32.70;55.50
1778;DHT22;886;50.082;8.222;2022-08-04T13:19:28;32.60;54.90
1778;DHT22;886;50.082;8.222;2022-08-04T13:21:57;32.70;54.60
1778;DHT22;886;50.082;8.222;2022-08-04T13:24:33;32.80;54.30
1778;DHT22;886;50.082;8.222;2022-08-04T13:27:23;32.90;53.80
1778;DHT22;886;50.082;8.222;2022-08-04T13:29:57;32.80;54.40
1778;DHT22;886;50.082;8.222;2022-08-04T13:32:34;32.90;54.80
1778;DHT22;886;50.082;8.222;2022-08-04T13:35:02;32.90;54.30
1778;DHT22;886;50.082;8.222;2022-08-04T13:37:33;33.00;54.50
1778;DHT22;886;50.082;8.222;2022-08-04T13:40:11;33.00;53.90
1778;DHT22;886;50.082;8.222;2022-08-04T13:42:46;33.10;53.60
1778;DHT22;886;50.082;8.222;2022-08-04T13:45:19;33.30;53.40
1778;DHT22;886;50.082;8.222;2022-08-04T13:47:49;33.30;53.80
1778;DHT22;886;50.082;8.222;2022-08-04T13:50:25;33.30;53.20
1778;DHT22;886;50.082;8.222;2022-08-04T13:52:56;33.40;52.30
1778;DHT22;886;50.082;8.222;2022-08-04T13:55:27;33.50;51.90
1778;DHT22;886;50.082;8.222;2022-08-04T13:58:08;33.70;51.40
1778;DHT22;886;50.082;8.222;2022-08-04T14:00:41;33.60;52.20
1778;DHT22;886;50.082;8.222;2022-08-04T14:03:17;33.50;51.90
1778;DHT22;886;50.082;8.222;2022-08-04T14:06:13;33.60;52.60
1778;DHT22;886;50.082;8.222;2022-08-04T14:08:52;33.50;51.20
1778;DHT22;886;50.082;8.222;2022-08-04T14:11:38;33.50;50.60
1778;DHT22;886;50.082;8.222;2022-08-04T14:14:36;33.50;52.50
1778;DHT22;886;50.082;8.222;2022-08-04T14:17:11;33.50;51.70
1778;DHT22;886;50.082;8.222;2022-08-04T14:19:51;33.50;51.60
1778;DHT22;886;50.082;8.222;2022-08-04T14:22:35;33.60;50.70
1778;DHT22;886;50.082;8.222;2022-08-04T14:25:07;33.80;50.30
1778;DHT22;886;50.082;8.222;2022-08-04T14:27:46;33.80;49.70
1778;DHT22;886;50.082;8.222;2022-08-04T14:30:24;34.00;49.70
1778;DHT22;886;50.082;8.222;2022-08-04T14:33:08;34.00;49.80
1778;DHT22;886;50.082;8.222;2022-08-04T14:35:56;34.00;49.60
1778;DHT22;886;50.082;8.222;2022-08-04T14:38:47;34.00;49.80
1778;DHT22;886;50.082;8.222;2022-08-04T14:41:26;34.00;49.70
1778;DHT22;886;50.082;8.222;2022-08-04T14:43:55;34.00;49.80
1778;DHT22;886;50.082;8.222;2022-08-04T14:46:26;33.80;50.00
1778;DHT22;886;50.082;8.222;2022-08-04T14:49:06;33.80;50.20
1778;DHT22;886;50.082;8.222;2022-08-04T14:51:40;33.70;49.30
1778;DHT22;886;50.082;8.222;2022-08-04T14:54:10;33.70;50.00
1778;DHT22;886;50.082;8.222;2022-08-04T14:56:52;33.70;50.40
1778;DHT22;886;50.082;8.222;2022-08-04T14:59:21;33.90;49.00
1778;DHT22;886;50.082;8.222;2022-08-04T15:01:50;33.80;49.50
1778;DHT22;886;50.082;8.222;2022-08-04T15:04:32;33.80;49.00
1778;DHT22;886;50.082;8.222;2022-08-04T15:07:06;33.70;49.10
1778;DHT22;886;50.082;8.222;2022-08-04T15:09:34;33.60;50.10
1778;DHT22;886;50.082;8.222;2022-08-04T15:12:03;33.40;50.80
1778;DHT22;886;50.082;8.222;2022-08-04T15:14:31;33.40;49.90
1778;DHT22;886;50.082;8.222;2022-08-04T15:17:05;33.20;50.10
1778;DHT22;886;50.082;8.222;2022-08-04T15:19:55;33.20;50.20
1778;DHT22;886;50.082;8.222;2022-08-04T15:22:32;33.10;50.50
1778;DHT22;886;50.082;8.222;2022-08-04T15:25:02;33.10;51.30
1778;DHT22;886;50.082;8.222;2022-08-04T15:27:33;33.00;51.40
1778;DHT22;886;50.082;8.222;2022-08-04T15:30:04;33.10;50.20
1778;DHT22;886;50.082;8.222;2022-08-04T15:32:37;33.10;49.80
1778;DHT22;886;50.082;8.222;2022-08-04T15:35:08;33.10;51.20
1778;DHT22;886;50.082;8.222;2022-08-04T15:37:45;33.00;51.40
1778;DHT22;886;50.082;8.222;2022-08-04T15:40:22;33.00;50.40
1778;DHT22;886;50.082;8.222;2022-08-04T15:43:12;33.10;50.10
1778;DHT22;886;50.082;8.222;2022-08-04T15:45:53;33.20;50.00
1778;DHT22;886;50.082;8.222;2022-08-04T15:48:43;33.20;49.50
1778;DHT22;886;50.082;8.222;2022-08-04T15:51:23;33.30;49.60
1778;DHT22;886;50.082;8.222;2022-08-04T15:54:20;33.30;49.80
1778;DHT22;886;50.082;8.222;2022-08-04T15:57:01;33.30;50.20
1778;DHT22;886;50.082;8.222;2022-08-04T15:59:58;33.20;49.80
1778;DHT22;886;50.082;8.222;2022-08-04T16:02:48;33.20;49.60
1778;DHT22;886;50.082;8.222;2022-08-04T16:05:35;33.20;49.60
1778;DHT22;886;50.082;8.222;2022-08-04T16:08:14;33.20;49.90
1778;DHT22;886;50.082;8.222;2022-08-04T16:10:47;33.20;50.60
1778;DHT22;886;50.082;8.222;2022-08-04T16:13:16;33.10;50.50
1778;DHT22;886;50.082;8.222;2022-08-04T16:15:48;33.10;50.70
1778;DHT22;886;50.082;8.222;2022-08-04T16:18:37;33.10;51.10
1778;DHT22;886;50.082;8.222;2022-08-04T16:21:22;33.10;52.10
1778;DHT22;886;50.082;8.222;2022-08-04T16:24:17;33.00;52.20
1778;DHT22;886;50.082;8.222;2022-08-04T16:26:48;33.10;51.20
1778;DHT22;886;50.082;8.222;2022-08-04T16:29:38;33.10;51.20
1778;DHT22;886;50.082;8.222;2022-08-04T16:32:18;33.10;51.50
1778;DHT22;886;50.082;8.222;2022-08-04T16:34:52;33.20;51.60
1778;DHT22;886;50.082;8.222;2022-08-04T16:37:32;33.10;51.60
1778;DHT22;886;50.082;8.222;2022-08-04T16:43:12;33.30;51.50
1778;DHT22;886;50.082;8.222;2022-08-04T16:45:47;33.40;51.40
1778;DHT22;886;50.082;8.222;2022-08-04T16:48:17;33.30;51.20
1778;DHT22;886;50.082;8.222;2022-08-04T16:50:53;33.40;51.40
1778;DHT22;886;50.082;8.222;2022-08-04T16:53:32;33.30;51.30
1778;DHT22;886;50.082;8.222;2022-08-04T16:56:28;33.20;51.30
1778;DHT22;886;50.082;8.222;2022-08-04T16:59:05;33.20;51.60
1778;DHT22;886;50.082;8.222;2022-08-04T17:01:33;33.10;52.40
1778;DHT22;886;50.082;8.222;2022-08-04T17:04:01;33.00;52.10
1778;DHT22;886;50.082;8.222;2022-08-04T17:06:35;33.00;52.20
1778;DHT22;886;50.082;8.222;2022-08-04T17:09:09;32.90;53.10
1778;DHT22;886;50.082;8.222;2022-08-04T17:11:41;33.10;52.90
1778;DHT22;886;50.082;8.222;2022-08-04T17:14:09;33.10;51.40
1778;DHT22;886;50.082;8.222;2022-08-04T17:16:39;33.10;51.80
1778;DHT22;886;50.082;8.222;2022-08-04T17:19:10;33.20;51.60
1778;DHT22;886;50.082;8.222;2022-08-04T17:21:54;33.20;51.90
1778;DHT22;886;50.082;8.222;2022-08-04T17:24:33;33.20;52.10
1778;DHT22;886;50.082;8.222;2022-08-04T17:27:03;33.20;52.40
1778;DHT22;886;50.082;8.222;2022-08-04T17:29:50;33.10;52.50
1778;DHT22;886;50.082;8.222;2022-08-04T17:32:19;33.10;52.50
1778;DHT22;886;50.082;8.222;2022-08-04T17:34:49;33.10;52.50
1778;DHT22;886;50.082;8.222;2022-08-04T17:37:17;33.10;52.60
1778;DHT22;886;50.082;8.222;2022-08-04T17:40:11;33.10;52.70
1778;DHT22;886;50.082;8.222;2022-08-04T17:42:43;33.00;52.80
1778;DHT22;886;50.082;8.222;2022-08-04T17:45:16;32.90;52.90
1778;DHT22;886;50.082;8.222;2022-08-04T17:48:06;32.90;53.20
1778;DHT22;886;50.082;8.222;2022-08-04T17:50:35;33.00;53.10
1778;DHT22;886;50.082;8.222;2022-08-04T17:53:09;32.90;53.30
1778;DHT22;886;50.082;8.222;2022-08-04T17:55:43;32.90;53.60
1778;DHT22;886;50.082;8.222;2022-08-04T17:58:18;32.70;53.70
1778;DHT22;886;50.082;8.222;2022-08-04T18:00:58;32.70;53.60
1778;DHT22;886;50.082;8.222;2022-08-04T18:03:46;32.70;53.70
1778;DHT22;886;50.082;8.222;2022-08-04T18:06:19;32.60;53.80
1778;DHT22;886;50.082;8.222;2022-08-04T18:08:51;32.50;54.40
1778;DHT22;886;50.082;8.222;2022-08-04T18:11:24;32.50;54.00
1778;DHT22;886;50.082;8.222;2022-08-04T18:14:09;32.40;53.90
1778;DHT22;886;50.082;8.222;2022-08-04T18:16:45;32.40;53.80
1778;DHT22;886;50.082;8.222;2022-08-04T18:19:14;32.30;54.20